sensor_id;sensor_type;location;lat;lon;timestamp;P1;durP1;ratioP1;P2;durP2;ratioP2
50205;SDS011;36098;48.390;10.856;2022-07-11T00:01:28;0.47;;;0.40;;
50205;SDS011;36098;48.390;10.856;2022-07-11T00:03:54;1.30;;;0.50;;
50205;SDS011;36098;48.390;10.856;2022-07-11T00:06:19;0.65;;;0.40;;
50205;SDS011;36098;48.390;10.856;2022-07-11T00:08:44;0.95;;;0.47;;
50205;SDS011;36098;48.390;10.856;2022-07-11T00:11:09;0.47;;;0.30;;
50205;SDS011;36098;48.390;10.856;2022-07-11T00:13:35;1.70;;;0.50;;
50205;SDS011;36098;48.390;10.856;2022-07-11T00:16:00;0.98;;;0.60;;
50205;SDS011;36098;48.390;10.856;2022-07-11T00:18:25;1.08;;;0.45;;
50205;SDS011;36098;48.390;10.856;2022-07-11T00:20:50;0.70;;;0.47;;
50205;SDS011;36098;48.390;10.856;2022-07-11T00:23:15;1.63;;;0.60;;
50205;SDS011;36098;48.390;10.856;2022-07-11T00:25:41;0.88;;;0.50;;
50205;SDS011;36098;48.390;10.856;2022-07-11T00:28:06;0.60;;;0.45;;
50205;SDS011;36098;48.390;10.856;2022-07-11T00:30:32;0.68;;;0.40;;
50205;SDS011;36098;48.390;10.856;2022-07-11T00:32:57;0.80;;;0.40;;
50205;SDS011;36098;48.390;10.856;2022-07-11T00:35:23;0.60;;;0.40;;
50205;SDS011;36098;48.390;10.856;2022-07-11T00:37:48;1.05;;;0.50;;
50205;SDS011;36098;48.390;10.856;2022-07-11T00:40:13;0.60;;;0.30;;
50205;SDS011;36098;48.390;10.856;2022-07-11T00:42:38;0.52;;;0.43;;
50205;SDS011;36098;48.390;10.856;2022-07-11T00:45:04;0.80;;;0.55;;
50205;SDS011;36098;48.390;10.856;2022-07-11T00:47:29;0.70;;;0.50;;
50205;SDS011;36098;48.390;10.856;2022-07-11T00:49:54;0.52;;;0.30;;
50205;SDS011;36098;48.390;10.856;2022-07-11T00:52:20;0.75;;;0.45;;
50205;SDS011;36098;48.390;10.856;2022-07-11T00:54:45;0.98;;;0.50;;
50205;SDS011;36098;48.390;10.856;2022-07-11T00:57:11;0.77;;;0.47;;
50205;SDS011;36098;48.390;10.856;2022-07-11T00:59:37;1.10;;;0.38;;
50205;SDS011;36098;48.390;10.856;2022-07-11T01:02:02;1.05;;;0.50;;
50205;SDS011;36098;48.390;10.856;2022-07-11T01:04:29;0.90;;;0.40;;
50205;SDS011;36098;48.390;10.856;2022-07-11T01:06:54;0.85;;;0.40;;
50205;SDS011;36098;48.390;10.856;2022-07-11T01:09:20;0.50;;;0.30;;
50205;SDS011;36098;48.390;10.856;2022-07-11T01:11:45;1.15;;;0.32;;
50205;SDS011;36098;48.390;10.856;2022-07-11T01:14:10;0.55;;;0.40;;
50205;SDS011;36098;48.390;10.856;2022-07-11T01:16:35;0.70;;;0.50;;
50205;SDS011;36098;48.390;10.856;2022-07-11T01:19:01;0.80;;;0.40;;
50205;SDS011;36098;48.390;10.856;2022-07-11T01:21:28;0.52;;;0.40;;
50205;SDS011;36098;48.390;10.856;2022-07-11T01:24:00;0.55;;;0.30;;
50205;SDS011;36098;48.390;10.856;2022-07-11T01:26:26;0.47;;;0.35;;
50205;SDS011;36098;48.390;10.856;2022-07-11T01:28:52;0.50;;;0.40;;
50205;SDS011;36098;48.390;10.856;2022-07-11T01:31:18;0.93;;;0.50;;
50205;SDS011;36098;48.390;10.856;2022-07-11T01:33:44;0.88;;;0.40;;
50205;SDS011;36098;48.390;10.856;2022-07-11T01:36:09;0.40;;;0.30;;
50205;SDS011;36098;48.390;10.856;2022-07-11T01:38:35;0.50;;;0.30;;
50205;SDS011;36098;48.390;10.856;2022-07-11T01:41:01;0.38;;;0.30;;
50205;SDS011;36098;48.390;10.856;2022-07-11T01:43:26;0.85;;;0.30;;
50205;SDS011;36098;48.390;10.856;2022-07-11T01:45:52;0.85;;;0.40;;
50205;SDS011;36098;48.390;10.856;2022-07-11T01:48:18;0.60;;;0.30;;
50205;SDS011;36098;48.390;10.856;2022-07-11T01:50:44;0.45;;;0.40;;
50205;SDS011;36098;48.390;10.856;2022-07-11T01:53:09;0.20;;;0.20;;
50205;SDS011;36098;48.390;10.856;2022-07-11T01:55:34;0.82;;;0.52;;
50205;SDS011;36098;48.390;10.856;2022-07-11T01:58:00;0.93;;;0.40;;
50205;SDS011;36098;48.390;10.856;2022-07-11T02:00:25;1.20;;;0.45;;
50205;SDS011;36098;48.390;10.856;2022-07-11T02:02:51;1.15;;;0.40;;
50205;SDS011;36098;48.390;10.856;2022-07-11T02:05:16;0.57;;;0.40;;
50205;SDS011;36098;48.390;10.856;2022-07-11T02:07:41;0.52;;;0.40;;
50205;SDS011;36098;48.390;10.856;2022-07-11T02:10:25;0.50;;;0.30;;
50205;SDS011;36098;48.390;10.856;2022-07-11T02:12:54;1.67;;;0.50;;
50205;SDS011;36098;48.390;10.856;2022-07-11T02:15:20;0.68;;;0.40;;
50205;SDS011;36098;48.390;10.856;2022-07-11T02:17:45;0.50;;;0.40;;
50205;SDS011;36098;48.390;10.856;2022-07-11T02:20:11;0.88;;;0.52;;
50205;SDS011;36098;48.390;10.856;2022-07-11T02:22:36;0.73;;;0.38;;
50205;SDS011;36098;48.390;10.856;2022-07-11T02:25:02;0.93;;;0.40;;
50205;SDS011;36098;48.390;10.856;2022-07-11T02:27:27;0.50;;;0.40;;
50205;SDS011;36098;48.390;10.856;2022-07-11T02:29:52;0.30;;;0.30;;
50205;SDS011;36098;48.390;10.856;2022-07-11T02:32:17;0.77;;;0.38;;
50205;SDS011;36098;48.390;10.856;2022-07-11T02:34:43;0.80;;;0.57;;
50205;SDS011;36098;48.390;10.856;2022-07-11T02:37:08;1.65;;;0.30;;
50205;SDS011;36098;48.390;10.856;2022-07-11T02:39:33;0.45;;;0.32;;
50205;SDS011;36098;48.390;10.856;2022-07-11T02:41:58;0.90;;;0.40;;
50205;SDS011;36098;48.390;10.856;2022-07-11T02:44:24;0.90;;;0.40;;
50205;SDS011;36098;48.390;10.856;2022-07-11T02:46:49;0.70;;;0.30;;
50205;SDS011;36098;48.390;10.856;2022-07-11T02:49:14;0.80;;;0.45;;
50205;SDS011;36098;48.390;10.856;2022-07-11T02:51:39;0.80;;;0.57;;
50205;SDS011;36098;48.390;10.856;2022-07-11T02:54:05;0.90;;;0.40;;
50205;SDS011;36098;48.390;10.856;2022-07-11T02:56:30;0.30;;;0.30;;
50205;SDS011;36098;48.390;10.856;2022-07-11T02:58:55;0.43;;;0.30;;
50205;SDS011;36098;48.390;10.856;2022-07-11T03:01:20;0.65;;;0.40;;
50205;SDS011;36098;48.390;10.856;2022-07-11T03:03:45;0.40;;;0.40;;
50205;SDS011;36098;48.390;10.856;2022-07-11T03:06:11;0.73;;;0.30;;
50205;SDS011;36098;48.390;10.856;2022-07-11T03:08:36;0.65;;;0.35;;
50205;SDS011;36098;48.390;10.856;2022-07-11T03:11:02;1.00;;;0.43;;
50205;SDS011;36098;48.390;10.856;2022-07-11T03:13:27;0.75;;;0.38;;
50205;SDS011;36098;48.390;10.856;2022-07-11T03:15:53;1.25;;;0.50;;
50205;SDS011;36098;48.390;10.856;2022-07-11T03:18:18;0.68;;;0.50;;
50205;SDS011;36098;48.390;10.856;2022-07-11T03:20:43;1.02;;;0.45;;
50205;SDS011;36098;48.390;10.856;2022-07-11T03:23:08;0.65;;;0.45;;
50205;SDS011;36098;48.390;10.856;2022-07-11T03:25:34;0.55;;;0.30;;
50205;SDS011;36098;48.390;10.856;2022-07-11T03:27:59;0.30;;;0.30;;
50205;SDS011;36098;48.390;10.856;2022-07-11T03:30:24;0.70;;;0.40;;
50205;SDS011;36098;48.390;10.856;2022-07-11T03:32:50;0.93;;;0.47;;
50205;SDS011;36098;48.390;10.856;2022-07-11T03:35:15;0.50;;;0.40;;
50205;SDS011;36098;48.390;10.856;2022-07-11T03:40:24;0.77;;;0.40;;
50205;SDS011;36098;48.390;10.856;2022-07-11T03:42:49;0.77;;;0.40;;
50205;SDS011;36098;48.390;10.856;2022-07-11T03:45:15;0.68;;;0.38;;
50205;SDS011;36098;48.390;10.856;2022-07-11T03:47:40;0.60;;;0.40;;
50205;SDS011;36098;48.390;10.856;2022-07-11T03:50:05;0.70;;;0.40;;
50205;SDS011;36098;48.390;10.856;2022-07-11T03:52:31;0.80;;;0.40;;
50205;SDS011;36098;48.390;10.856;2022-07-11T03:54:57;0.63;;;0.40;;
50205;SDS011;36098;48.390;10.856;2022-07-11T03:57:22;0.73;;;0.30;;
50205;SDS011;36098;48.390;10.856;2022-07-11T03:59:48;0.52;;;0.30;;
50205;SDS011;36098;48.390;10.856;2022-07-11T04:02:13;0.60;;;0.30;;
50205;SDS011;36098;48.390;10.856;2022-07-11T04:04:38;0.73;;;0.30;;
50205;SDS011;36098;48.390;10.856;2022-07-11T04:07:03;0.65;;;0.43;;
50205;SDS011;36098;48.390;10.856;2022-07-11T04:09:29;0.57;;;0.40;;
50205;SDS011;36098;48.390;10.856;2022-07-11T04:11:54;0.50;;;0.40;;
50205;SDS011;36098;48.390;10.856;2022-07-11T04:14:20;1.20;;;0.40;;
50205;SDS011;36098;48.390;10.856;2022-07-11T04:16:45;0.68;;;0.40;;
50205;SDS011;36098;48.390;10.856;2022-07-11T04:19:11;1.60;;;0.30;;
50205;SDS011;36098;48.390;10.856;2022-07-11T04:21:36;0.90;;;0.40;;
50205;SDS011;36098;48.390;10.856;2022-07-11T04:24:01;1.13;;;0.43;;
50205;SDS011;36098;48.390;10.856;2022-07-11T04:26:26;0.60;;;0.30;;
50205;SDS011;36098;48.390;10.856;2022-07-11T04:28:52;0.57;;;0.30;;
50205;SDS011;36098;48.390;10.856;2022-07-11T04:31:17;0.45;;;0.40;;
50205;SDS011;36098;48.390;10.856;2022-07-11T04:33:42;0.43;;;0.40;;
50205;SDS011;36098;48.390;10.856;2022-07-11T04:36:08;0.85;;;0.45;;
50205;SDS011;36098;48.390;10.856;2022-07-11T04:38:33;0.22;;;0.22;;
50205;SDS011;36098;48.390;10.856;2022-07-11T04:40:58;0.65;;;0.47;;
50205;SDS011;36098;48.390;10.856;2022-07-11T04:43:23;0.65;;;0.35;;
50205;SDS011;36098;48.390;10.856;2022-07-11T04:45:49;0.82;;;0.40;;
50205;SDS011;36098;48.390;10.856;2022-07-11T04:48:14;0.50;;;0.30;;
50205;SDS011;36098;48.390;10.856;2022-07-11T04:50:43;0.70;;;0.30;;
50205;SDS011;36098;48.390;10.856;2022-07-11T04:53:09;0.32;;;0.30;;
50205;SDS011;36098;48.390;10.856;2022-07-11T04:55:35;1.15;;;0.40;;
50205;SDS011;36098;48.390;10.856;2022-07-11T04:58:02;0.40;;;0.22;;
50205;SDS011;36098;48.390;10.856;2022-07-11T05:00:27;3.28;;;0.50;;
50205;SDS011;36098;48.390;10.856;2022-07-11T05:02:53;1.17;;;0.40;;
50205;SDS011;36098;48.390;10.856;2022-07-11T05:05:20;3.20;;;0.30;;
50205;SDS011;36098;48.390;10.856;2022-07-11T05:07:46;1.25;;;0.52;;
50205;SDS011;36098;48.390;10.856;2022-07-11T05:10:12;1.20;;;0.38;;
50205;SDS011;36098;48.390;10.856;2022-07-11T05:12:37;0.55;;;0.47;;
50205;SDS011;36098;48.390;10.856;2022-07-11T05:15:02;0.70;;;0.40;;
50205;SDS011;36098;48.390;10.856;2022-07-11T05:17:28;2.60;;;0.43;;
50205;SDS011;36098;48.390;10.856;2022-07-11T05:19:53;0.68;;;0.50;;
50205;SDS011;36098;48.390;10.856;2022-07-11T05:22:19;2.55;;;0.45;;
50205;SDS011;36098;48.390;10.856;2022-07-11T05:24:44;4.75;;;0.90;;
50205;SDS011;36098;48.390;10.856;2022-07-11T05:27:10;2.85;;;0.40;;
50205;SDS011;36098;48.390;10.856;2022-07-11T05:29:36;1.50;;;0.60;;
50205;SDS011;36098;48.390;10.856;2022-07-11T05:32:01;2.97;;;0.70;;
50205;SDS011;36098;48.390;10.856;2022-07-11T05:34:26;3.28;;;0.57;;
50205;SDS011;36098;48.390;10.856;2022-07-11T05:36:52;5.15;;;0.60;;
50205;SDS011;36098;48.390;10.856;2022-07-11T05:39:18;1.95;;;0.60;;
50205;SDS011;36098;48.390;10.856;2022-07-11T05:41:43;1.58;;;0.60;;
50205;SDS011;36098;48.390;10.856;2022-07-11T05:44:09;2.22;;;0.52;;
50205;SDS011;36098;48.390;10.856;2022-07-11T05:46:34;1.55;;;0.50;;
50205;SDS011;36098;48.390;10.856;2022-07-11T05:49:04;2.65;;;0.70;;
50205;SDS011;36098;48.390;10.856;2022-07-11T05:51:30;2.53;;;0.60;;
50205;SDS011;36098;48.390;10.856;2022-07-11T05:53:55;2.47;;;0.70;;
50205;SDS011;36098;48.390;10.856;2022-07-11T05:56:20;2.70;;;0.65;;
50205;SDS011;36098;48.390;10.856;2022-07-11T05:58:46;2.58;;;0.70;;
50205;SDS011;36098;48.390;10.856;2022-07-11T06:01:11;1.92;;;0.50;;
50205;SDS011;36098;48.390;10.856;2022-07-11T06:03:36;1.15;;;0.60;;
50205;SDS011;36098;48.390;10.856;2022-07-11T06:06:02;5.65;;;0.80;;
50205;SDS011;36098;48.390;10.856;2022-07-11T06:08:29;1.50;;;0.70;;
50205;SDS011;36098;48.390;10.856;2022-07-11T06:11:13;1.92;;;0.68;;
50205;SDS011;36098;48.390;10.856;2022-07-11T06:13:39;2.45;;;0.68;;
50205;SDS011;36098;48.390;10.856;2022-07-11T06:16:06;5.78;;;0.50;;
50205;SDS011;36098;48.390;10.856;2022-07-11T06:18:32;1.77;;;0.68;;
50205;SDS011;36098;48.390;10.856;2022-07-11T06:20:58;1.48;;;0.52;;
50205;SDS011;36098;48.390;10.856;2022-07-11T06:23:24;1.92;;;0.70;;
50205;SDS011;36098;48.390;10.856;2022-07-11T06:25:49;1.30;;;0.57;;
50205;SDS011;36098;48.390;10.856;2022-07-11T06:28:14;4.35;;;1.00;;
50205;SDS011;36098;48.390;10.856;2022-07-11T06:30:39;3.10;;;0.90;;
50205;SDS011;36098;48.390;10.856;2022-07-11T06:33:05;5.97;;;1.05;;
50205;SDS011;36098;48.390;10.856;2022-07-11T06:35:30;2.25;;;0.77;;
50205;SDS011;36098;48.390;10.856;2022-07-11T06:37:55;3.97;;;0.80;;
50205;SDS011;36098;48.390;10.856;2022-07-11T06:40:21;3.30;;;1.00;;
50205;SDS011;36098;48.390;10.856;2022-07-11T06:42:48;5.68;;;1.00;;
50205;SDS011;36098;48.390;10.856;2022-07-11T06:45:13;4.45;;;0.90;;
50205;SDS011;36098;48.390;10.856;2022-07-11T06:47:38;5.07;;;0.98;;
50205;SDS011;36098;48.390;10.856;2022-07-11T06:50:04;4.63;;;0.90;;
50205;SDS011;36098;48.390;10.856;2022-07-11T06:52:29;5.95;;;1.00;;
50205;SDS011;36098;48.390;10.856;2022-07-11T06:54:54;4.22;;;0.88;;
50205;SDS011;36098;48.390;10.856;2022-07-11T06:57:20;2.55;;;0.73;;
50205;SDS011;36098;48.390;10.856;2022-07-11T06:59:45;2.75;;;0.90;;
50205;SDS011;36098;48.390;10.856;2022-07-11T07:02:10;2.38;;;0.73;;
50205;SDS011;36098;48.390;10.856;2022-07-11T07:04:35;3.75;;;0.98;;
50205;SDS011;36098;48.390;10.856;2022-07-11T07:07:01;2.40;;;0.93;;
50205;SDS011;36098;48.390;10.856;2022-07-11T07:09:27;1.38;;;0.60;;
50205;SDS011;36098;48.390;10.856;2022-07-11T07:11:52;1.60;;;0.73;;
50205;SDS011;36098;48.390;10.856;2022-07-11T07:14:18;2.28;;;0.80;;
50205;SDS011;36098;48.390;10.856;2022-07-11T07:16:43;2.60;;;1.00;;
50205;SDS011;36098;48.390;10.856;2022-07-11T07:19:08;5.10;;;0.90;;
50205;SDS011;36098;48.390;10.856;2022-07-11T07:21:34;3.13;;;1.00;;
50205;SDS011;36098;48.390;10.856;2022-07-11T07:23:59;1.92;;;0.70;;
50205;SDS011;36098;48.390;10.856;2022-07-11T07:26:24;3.63;;;0.70;;
50205;SDS011;36098;48.390;10.856;2022-07-11T07:28:49;3.03;;;0.95;;
50205;SDS011;36098;48.390;10.856;2022-07-11T07:31:15;3.05;;;1.00;;
50205;SDS011;36098;48.390;10.856;2022-07-11T07:33:41;3.10;;;0.93;;
50205;SDS011;36098;48.390;10.856;2022-07-11T07:36:06;2.88;;;0.88;;
50205;SDS011;36098;48.390;10.856;2022-07-11T07:38:32;2.22;;;0.80;;
50205;SDS011;36098;48.390;10.856;2022-07-11T07:40:57;2.78;;;1.00;;
50205;SDS011;36098;48.390;10.856;2022-07-11T07:43:22;1.98;;;0.75;;
50205;SDS011;36098;48.390;10.856;2022-07-11T07:45:47;2.00;;;0.80;;
50205;SDS011;36098;48.390;10.856;2022-07-11T07:48:13;2.13;;;0.80;;
50205;SDS011;36098;48.390;10.856;2022-07-11T07:50:38;1.02;;;0.60;;
50205;SDS011;36098;48.390;10.856;2022-07-11T07:53:03;1.63;;;0.77;;
50205;SDS011;36098;48.390;10.856;2022-07-11T07:55:28;1.67;;;0.70;;
50205;SDS011;36098;48.390;10.856;2022-07-11T07:57:54;3.95;;;0.90;;
50205;SDS011;36098;48.390;10.856;2022-07-11T08:00:19;1.80;;;0.73;;
50205;SDS011;36098;48.390;10.856;2022-07-11T08:03:03;2.08;;;0.80;;
50205;SDS011;36098;48.390;10.856;2022-07-11T08:05:33;3.03;;;1.00;;
50205;SDS011;36098;48.390;10.856;2022-07-11T08:07:59;3.83;;;1.23;;
50205;SDS011;36098;48.390;10.856;2022-07-11T08:10:25;2.50;;;0.88;;
50205;SDS011;36098;48.390;10.856;2022-07-11T08:12:50;3.42;;;0.93;;
50205;SDS011;36098;48.390;10.856;2022-07-11T08:15:16;3.38;;;0.90;;
50205;SDS011;36098;48.390;10.856;2022-07-11T08:17:41;3.33;;;0.98;;
50205;SDS011;36098;48.390;10.856;2022-07-11T08:20:06;1.75;;;0.80;;
50205;SDS011;36098;48.390;10.856;2022-07-11T08:22:32;2.33;;;0.98;;
50205;SDS011;36098;48.390;10.856;2022-07-11T08:24:57;1.40;;;0.82;;
50205;SDS011;36098;48.390;10.856;2022-07-11T08:27:22;3.38;;;1.00;;
50205;SDS011;36098;48.390;10.856;2022-07-11T08:29:48;1.27;;;0.90;;
50205;SDS011;36098;48.390;10.856;2022-07-11T08:32:13;1.30;;;0.82;;
50205;SDS011;36098;48.390;10.856;2022-07-11T08:34:39;3.40;;;0.93;;
50205;SDS011;36098;48.390;10.856;2022-07-11T08:37:04;1.58;;;0.80;;
50205;SDS011;36098;48.390;10.856;2022-07-11T08:39:29;1.25;;;0.63;;
50205;SDS011;36098;48.390;10.856;2022-07-11T08:41:54;1.67;;;0.80;;
50205;SDS011;36098;48.390;10.856;2022-07-11T08:44:21;1.88;;;1.00;;
50205;SDS011;36098;48.390;10.856;2022-07-11T08:46:47;3.05;;;1.00;;
50205;SDS011;36098;48.390;10.856;2022-07-11T08:49:12;2.05;;;1.05;;
50205;SDS011;36098;48.390;10.856;2022-07-11T08:51:38;1.38;;;0.88;;
50205;SDS011;36098;48.390;10.856;2022-07-11T08:54:03;2.67;;;0.90;;
50205;SDS011;36098;48.390;10.856;2022-07-11T08:56:29;2.00;;;1.00;;
50205;SDS011;36098;48.390;10.856;2022-07-11T08:58:56;1.70;;;0.93;;
50205;SDS011;36098;48.390;10.856;2022-07-11T09:01:33;1.58;;;0.98;;
50205;SDS011;36098;48.390;10.856;2022-07-11T09:04:00;2.22;;;0.90;;
50205;SDS011;36098;48.390;10.856;2022-07-11T09:06:26;3.05;;;1.10;;
50205;SDS011;36098;48.390;10.856;2022-07-11T09:08:56;2.17;;;1.00;;
50205;SDS011;36098;48.390;10.856;2022-07-11T09:11:22;2.30;;;1.13;;
50205;SDS011;36098;48.390;10.856;2022-07-11T09:13:47;2.50;;;0.90;;
50205;SDS011;36098;48.390;10.856;2022-07-11T09:16:13;1.73;;;1.10;;
50205;SDS011;36098;48.390;10.856;2022-07-11T09:18:41;1.55;;;0.82;;
50205;SDS011;36098;48.390;10.856;2022-07-11T09:21:07;0.98;;;0.82;;
50205;SDS011;36098;48.390;10.856;2022-07-11T09:23:53;4.80;;;1.00;;
50205;SDS011;36098;48.390;10.856;2022-07-11T09:26:40;3.50;;;0.77;;
50205;SDS011;36098;48.390;10.856;2022-07-11T09:29:11;3.15;;;1.20;;
50205;SDS011;36098;48.390;10.856;2022-07-11T09:31:39;2.38;;;0.90;;
50205;SDS011;36098;48.390;10.856;2022-07-11T09:34:07;2.13;;;0.98;;
50205;SDS011;36098;48.390;10.856;2022-07-11T09:39:07;6.03;;;1.00;;
50205;SDS011;36098;48.390;10.856;2022-07-11T09:41:34;4.25;;;0.90;;
50205;SDS011;36098;48.390;10.856;2022-07-11T09:44:11;2.28;;;1.10;;
50205;SDS011;36098;48.390;10.856;2022-07-11T09:46:40;2.25;;;1.00;;
50205;SDS011;36098;48.390;10.856;2022-07-11T09:49:06;2.45;;;0.80;;
50205;SDS011;36098;48.390;10.856;2022-07-11T09:51:32;3.63;;;0.93;;
50205;SDS011;36098;48.390;10.856;2022-07-11T09:53:59;1.58;;;0.80;;
50205;SDS011;36098;48.390;10.856;2022-07-11T09:56:40;4.47;;;1.10;;
50205;SDS011;36098;48.390;10.856;2022-07-11T09:59:11;2.08;;;1.08;;
50205;SDS011;36098;48.390;10.856;2022-07-11T10:01:38;4.65;;;1.30;;
50205;SDS011;36098;48.390;10.856;2022-07-11T10:04:07;4.65;;;1.10;;
50205;SDS011;36098;48.390;10.856;2022-07-11T10:06:34;2.08;;;1.00;;
50205;SDS011;36098;48.390;10.856;2022-07-11T10:09:01;3.92;;;1.23;;
50205;SDS011;36098;48.390;10.856;2022-07-11T10:11:29;5.07;;;1.10;;
50205;SDS011;36098;48.390;10.856;2022-07-11T10:13:55;5.10;;;1.30;;
50205;SDS011;36098;48.390;10.856;2022-07-11T10:18:50;5.78;;;1.13;;
50205;SDS011;36098;48.390;10.856;2022-07-11T10:21:22;9.18;;;1.30;;
50205;SDS011;36098;48.390;10.856;2022-07-11T10:24:07;7.63;;;1.55;;
50205;SDS011;36098;48.390;10.856;2022-07-11T10:26:38;2.10;;;1.00;;
50205;SDS011;36098;48.390;10.856;2022-07-11T10:29:23;6.53;;;1.40;;
50205;SDS011;36098;48.390;10.856;2022-07-11T10:32:04;4.57;;;1.25;;
50205;SDS011;36098;48.390;10.856;2022-07-11T10:34:33;7.03;;;1.20;;
50205;SDS011;36098;48.390;10.856;2022-07-11T10:36:59;9.18;;;1.35;;
50205;SDS011;36098;48.390;10.856;2022-07-11T10:39:26;4.18;;;0.90;;
50205;SDS011;36098;48.390;10.856;2022-07-11T10:41:55;3.15;;;0.93;;
50205;SDS011;36098;48.390;10.856;2022-07-11T10:44:23;5.35;;;0.80;;
50205;SDS011;36098;48.390;10.856;2022-07-11T10:46:50;8.75;;;1.00;;
50205;SDS011;36098;48.390;10.856;2022-07-11T10:49:17;1.30;;;0.73;;
50205;SDS011;36098;48.390;10.856;2022-07-11T10:52:06;1.48;;;0.88;;
50205;SDS011;36098;48.390;10.856;2022-07-11T10:57:56;2.60;;;0.65;;
50205;SDS011;36098;48.390;10.856;2022-07-11T11:00:20;13.20;;;0.90;;
50205;SDS011;36098;48.390;10.856;2022-07-11T11:05:47;3.42;;;0.80;;
50205;SDS011;36098;48.390;10.856;2022-07-11T11:10:55;2.03;;;0.60;;
50205;SDS011;36098;48.390;10.856;2022-07-11T11:13:20;2.05;;;0.57;;
50205;SDS011;36098;48.390;10.856;2022-07-11T11:23:31;2.70;;;0.50;;
50205;SDS011;36098;48.390;10.856;2022-07-11T11:26:13;0.63;;;0.43;;
50205;SDS011;36098;48.390;10.856;2022-07-11T11:28:56;1.77;;;0.60;;
50205;SDS011;36098;48.390;10.856;2022-07-11T11:31:23;1.52;;;0.60;;
50205;SDS011;36098;48.390;10.856;2022-07-11T11:33:48;1.52;;;0.73;;
50205;SDS011;36098;48.390;10.856;2022-07-11T11:36:17;3.35;;;0.65;;
50205;SDS011;36098;48.390;10.856;2022-07-11T11:38:44;3.25;;;0.63;;
50205;SDS011;36098;48.390;10.856;2022-07-11T11:41:13;3.35;;;0.45;;
50205;SDS011;36098;48.390;10.856;2022-07-11T11:43:42;2.75;;;0.70;;
50205;SDS011;36098;48.390;10.856;2022-07-11T11:46:11;3.30;;;0.55;;
50205;SDS011;36098;48.390;10.856;2022-07-11T11:48:37;6.80;;;0.70;;
50205;SDS011;36098;48.390;10.856;2022-07-11T11:51:04;0.77;;;0.43;;
50205;SDS011;36098;48.390;10.856;2022-07-11T11:53:37;1.67;;;0.57;;
50205;SDS011;36098;48.390;10.856;2022-07-11T11:58:46;0.90;;;0.40;;
50205;SDS011;36098;48.390;10.856;2022-07-11T12:01:13;3.05;;;1.75;;
50205;SDS011;36098;48.390;10.856;2022-07-11T12:03:46;1.17;;;0.68;;
50205;SDS011;36098;48.390;10.856;2022-07-11T12:06:12;3.28;;;1.17;;
50205;SDS011;36098;48.390;10.856;2022-07-11T12:08:37;4.10;;;1.20;;
50205;SDS011;36098;48.390;10.856;2022-07-11T12:11:02;1.98;;;0.90;;
50205;SDS011;36098;48.390;10.856;2022-07-11T12:13:27;1.90;;;1.00;;
50205;SDS011;36098;48.390;10.856;2022-07-11T12:15:52;2.75;;;0.70;;
50205;SDS011;36098;48.390;10.856;2022-07-11T12:18:51;4.57;;;0.80;;
50205;SDS011;36098;48.390;10.856;2022-07-11T12:21:17;2.05;;;0.63;;
50205;SDS011;36098;48.390;10.856;2022-07-11T12:23:42;1.58;;;0.65;;
50205;SDS011;36098;48.390;10.856;2022-07-11T12:26:08;2.40;;;0.80;;
50205;SDS011;36098;48.390;10.856;2022-07-11T12:28:33;3.72;;;0.70;;
50205;SDS011;36098;48.390;10.856;2022-07-11T12:30:58;1.20;;;0.70;;
50205;SDS011;36098;48.390;10.856;2022-07-11T12:33:24;1.25;;;0.68;;
50205;SDS011;36098;48.390;10.856;2022-07-11T12:38:18;1.45;;;0.77;;
50205;SDS011;36098;48.390;10.856;2022-07-11T12:40:57;2.47;;;0.75;;
50205;SDS011;36098;48.390;10.856;2022-07-11T12:43:39;2.08;;;0.50;;
50205;SDS011;36098;48.390;10.856;2022-07-11T12:46:30;2.80;;;0.65;;
50205;SDS011;36098;48.390;10.856;2022-07-11T12:48:56;1.63;;;0.77;;
50205;SDS011;36098;48.390;10.856;2022-07-11T12:51:31;3.85;;;0.65;;
50205;SDS011;36098;48.390;10.856;2022-07-11T12:54:05;1.50;;;0.52;;
50205;SDS011;36098;48.390;10.856;2022-07-11T12:56:35;2.35;;;0.70;;
50205;SDS011;36098;48.390;10.856;2022-07-11T12:59:01;1.10;;;0.50;;
50205;SDS011;36098;48.390;10.856;2022-07-11T13:01:31;1.67;;;0.63;;
50205;SDS011;36098;48.390;10.856;2022-07-11T13:03:57;1.38;;;0.60;;
50205;SDS011;36098;48.390;10.856;2022-07-11T13:06:22;2.38;;;0.60;;
50205;SDS011;36098;48.390;10.856;2022-07-11T13:09:07;2.38;;;0.60;;
50205;SDS011;36098;48.390;10.856;2022-07-11T13:11:33;2.03;;;0.80;;
50205;SDS011;36098;48.390;10.856;2022-07-11T13:13:59;1.45;;;0.70;;
50205;SDS011;36098;48.390;10.856;2022-07-11T13:16:25;2.15;;;0.68;;
50205;SDS011;36098;48.390;10.856;2022-07-11T13:18:50;3.75;;;0.50;;
50205;SDS011;36098;48.390;10.856;2022-07-11T13:21:16;1.30;;;0.60;;
50205;SDS011;36098;48.390;10.856;2022-07-11T13:23:42;2.80;;;0.80;;
50205;SDS011;36098;48.390;10.856;2022-07-11T13:26:08;1.48;;;0.68;;
50205;SDS011;36098;48.390;10.856;2022-07-11T13:28:34;2.65;;;0.60;;
50205;SDS011;36098;48.390;10.856;2022-07-11T13:31:00;2.03;;;0.60;;
50205;SDS011;36098;48.390;10.856;2022-07-11T13:33:25;0.55;;;0.47;;
50205;SDS011;36098;48.390;10.856;2022-07-11T13:35:51;1.10;;;0.50;;
50205;SDS011;36098;48.390;10.856;2022-07-11T13:38:18;0.60;;;0.50;;
50205;SDS011;36098;48.390;10.856;2022-07-11T13:40:44;1.25;;;0.50;;
50205;SDS011;36098;48.390;10.856;2022-07-11T13:43:10;1.95;;;0.68;;
50205;SDS011;36098;48.390;10.856;2022-07-11T13:45:37;0.73;;;0.40;;
50205;SDS011;36098;48.390;10.856;2022-07-11T13:48:04;1.63;;;0.77;;
50205;SDS011;36098;48.390;10.856;2022-07-11T13:50:29;2.35;;;0.60;;
50205;SDS011;36098;48.390;10.856;2022-07-11T13:52:54;3.45;;;0.60;;
50205;SDS011;36098;48.390;10.856;2022-07-11T13:55:20;1.50;;;0.55;;
50205;SDS011;36098;48.390;10.856;2022-07-11T13:57:49;1.80;;;0.85;;
50205;SDS011;36098;48.390;10.856;2022-07-11T14:00:17;1.80;;;0.52;;
50205;SDS011;36098;48.390;10.856;2022-07-11T14:02:43;1.17;;;0.52;;
50205;SDS011;36098;48.390;10.856;2022-07-11T14:05:08;1.40;;;0.82;;
50205;SDS011;36098;48.390;10.856;2022-07-11T14:07:34;0.70;;;0.60;;
50205;SDS011;36098;48.390;10.856;2022-07-11T14:10:00;1.05;;;0.68;;
50205;SDS011;36098;48.390;10.856;2022-07-11T14:12:26;1.25;;;0.68;;
50205;SDS011;36098;48.390;10.856;2022-07-11T14:14:53;0.90;;;0.40;;
50205;SDS011;36098;48.390;10.856;2022-07-11T14:17:19;2.47;;;0.65;;
50205;SDS011;36098;48.390;10.856;2022-07-11T14:19:44;1.55;;;0.70;;
50205;SDS011;36098;48.390;10.856;2022-07-11T14:22:09;0.80;;;0.60;;
50205;SDS011;36098;48.390;10.856;2022-07-11T14:24:35;0.63;;;0.50;;
50205;SDS011;36098;48.390;10.856;2022-07-11T14:27:00;2.33;;;0.65;;
50205;SDS011;36098;48.390;10.856;2022-07-11T14:29:27;0.82;;;0.65;;
50205;SDS011;36098;48.390;10.856;2022-07-11T14:31:53;0.70;;;0.57;;
50205;SDS011;36098;48.390;10.856;2022-07-11T14:34:19;1.45;;;0.70;;
50205;SDS011;36098;48.390;10.856;2022-07-11T14:36:45;1.25;;;0.70;;
50205;SDS011;36098;48.390;10.856;2022-07-11T14:39:11;2.45;;;0.80;;
50205;SDS011;36098;48.390;10.856;2022-07-11T14:41:36;1.20;;;0.70;;
50205;SDS011;36098;48.390;10.856;2022-07-11T14:44:02;1.98;;;0.80;;
50205;SDS011;36098;48.390;10.856;2022-07-11T14:46:28;2.15;;;0.63;;
50205;SDS011;36098;48.390;10.856;2022-07-11T14:48:53;1.65;;;0.60;;
50205;SDS011;36098;48.390;10.856;2022-07-11T14:51:19;0.93;;;0.80;;
50205;SDS011;36098;48.390;10.856;2022-07-11T14:53:44;2.65;;;0.73;;
50205;SDS011;36098;48.390;10.856;2022-07-11T14:56:09;1.33;;;0.73;;
50205;SDS011;36098;48.390;10.856;2022-07-11T14:58:34;1.02;;;0.70;;
50205;SDS011;36098;48.390;10.856;2022-07-11T15:01:00;2.70;;;0.85;;